createdAt,value
2018-04-02T00:00:27.484Z,53.96
2018-04-02T00:01:27.478Z,53.77
2018-04-02T00:02:27.476Z,53.77
2018-04-02T00:03:27.466Z,54.16
2018-04-02T00:04:27.454Z,54.25
2018-04-02T00:05:27.451Z,54.03
2018-04-02T00:06:27.443Z,53.96
2018-04-02T00:07:27.436Z,54.25
2018-04-02T00:08:27.435Z,54.06
2018-04-02T00:09:27.435Z,54.03
2018-04-02T00:10:27.428Z,54.16
2018-04-02T00:11:27.411Z,54.25
2018-04-02T00:12:27.403Z,54.06
2018-04-02T00:13:27.396Z,54.16
2018-04-02T00:14:27.392Z,53.96
2018-04-02T00:15:27.401Z,53.94
2018-04-02T00:16:27.464Z,54.06
2018-04-02T00:17:27.371Z,54.52
2018-04-02T00:18:27.364Z,54.35
2018-04-02T00:19:27.356Z,54.44
2018-04-02T00:20:27.353Z,54.52
2018-04-02T00:21:27.345Z,54.42
2018-04-02T00:22:27.343Z,54.16
2018-04-02T00:23:27.338Z,54.13
2018-04-02T00:24:27.322Z,54.42
2018-04-02T00:25:27.317Z,54.13
2018-04-02T00:26:27.314Z,54.32
2018-04-02T00:27:27.311Z,54.25
2018-04-02T00:28:27.297Z,54.80
2018-04-02T00:29:27.292Z,54.44
2018-04-02T00:30:27.292Z,54.80
2018-04-02T00:31:27.279Z,54.80
2018-04-02T00:32:27.273Z,54.74
2018-04-02T00:33:27.300Z,54.52
2018-04-02T00:34:27.258Z,54.71
2018-04-02T00:35:27.255Z,54.90
2018-04-02T00:36:27.244Z,54.71
2018-04-02T00:37:27.243Z,54.61
2018-04-02T00:38:27.235Z,54.61
2018-04-02T00:39:27.225Z,54.61
2018-04-02T00:40:27.230Z,54.71
2018-04-02T00:41:27.214Z,54.71
2018-04-02T00:42:27.208Z,54.90
2018-04-02T00:43:27.201Z,54.71
2018-04-02T00:44:27.192Z,54.90
2018-04-02T00:45:27.195Z,54.80
2018-04-02T00:46:27.180Z,54.71
2018-04-02T00:47:27.174Z,54.90
2018-04-02T00:48:27.167Z,54.80
2018-04-02T00:49:27.160Z,54.80
2018-04-02T00:50:27.154Z,54.80
2018-04-02T00:51:27.152Z,54.90
2018-04-02T00:52:27.146Z,54.90
2018-04-02T00:53:27.135Z,54.90
2018-04-02T00:54:27.125Z,54.90
2018-04-02T00:55:27.123Z,54.90
2018-04-02T00:56:27.140Z,54.71
2018-04-02T00:57:27.112Z,54.52
2018-04-02T00:58:27.102Z,54.71
2018-04-02T00:59:27.099Z,54.80
2018-04-02T01:00:27.101Z,55.00
2018-04-02T01:01:27.083Z,54.32
2018-04-02T01:02:27.076Z,54.71
2018-04-02T01:03:27.068Z,54.80
2018-04-02T01:04:27.060Z,54.71
2018-04-02T01:05:27.056Z,54.71
2018-04-02T01:06:27.054Z,54.80
2018-04-02T01:07:27.047Z,54.71
2018-04-02T01:08:27.041Z,54.80
2018-04-02T01:09:27.027Z,54.71
2018-04-02T01:10:27.026Z,54.61
2018-04-02T01:11:27.022Z,54.71
2018-04-02T01:12:27.010Z,54.90
2018-04-02T01:13:27.010Z,54.80
2018-04-02T01:14:27.000Z,54.80
2018-04-02T01:15:26.995Z,54.71
2018-04-02T01:16:26.985Z,54.64
2018-04-02T01:17:26.974Z,54.71
2018-04-02T01:18:26.970Z,54.90
2018-04-02T01:19:26.965Z,54.61
2018-04-02T01:20:26.964Z,54.90
2018-04-02T01:21:26.951Z,54.90
2018-04-02T01:22:26.947Z,54.80
2018-04-02T01:23:26.940Z,54.80
2018-04-02T01:24:26.929Z,54.80
2018-04-02T01:25:26.926Z,54.80
2018-04-02T01:26:26.918Z,54.80
2018-04-02T01:27:26.914Z,54.90
2018-04-02T01:28:26.905Z,54.90
2018-04-02T01:29:26.897Z,54.90
2018-04-02T01:30:26.897Z,54.80
2018-04-02T01:31:26.887Z,54.71
2018-04-02T01:32:26.879Z,54.80
2018-04-02T01:33:26.869Z,54.71
2018-04-02T01:34:26.871Z,54.71
2018-04-02T01:35:26.864Z,54.71
2018-04-02T01:36:26.853Z,54.74
2018-04-02T01:37:26.845Z,54.61
2018-04-02T01:38:26.843Z,54.80
2018-04-02T01:39:26.835Z,54.52
2018-04-02T01:40:26.824Z,54.52
2018-04-02T01:41:26.823Z,54.61
2018-04-02T01:42:26.824Z,54.64
2018-04-02T01:43:26.816Z,54.90
2018-04-02T01:44:26.799Z,54.90
2018-04-02T01:45:26.796Z,54.90
2018-04-02T01:46:26.791Z,55.38
2018-04-02T01:47:26.777Z,55.19
2018-04-02T01:48:26.773Z,55.29
2018-04-02T01:49:26.769Z,55.29
2018-04-02T01:50:26.768Z,55.38
2018-04-02T01:51:26.758Z,55.38
2018-04-02T01:52:26.797Z,55.19
2018-04-02T01:53:26.744Z,55.19
2018-04-02T01:54:26.739Z,55.09
2018-04-02T01:55:26.732Z,55.00
2018-04-02T01:56:26.723Z,54.90
2018-04-02T01:57:26.734Z,55.09
2018-04-02T01:58:26.711Z,55.09
2018-04-02T01:59:26.704Z,55.19
2018-04-02T02:00:26.698Z,55.19
2018-04-02T02:01:26.697Z,55.19
2018-04-02T02:02:26.685Z,55.09
2018-04-02T02:03:26.676Z,55.09
2018-04-02T02:04:26.672Z,55.09
2018-04-02T02:05:26.664Z,55.48
2018-04-02T02:06:26.657Z,55.38
2018-04-02T02:07:26.652Z,55.19
2018-04-02T02:08:26.642Z,55.29
2018-04-02T02:09:26.639Z,55.57
2018-04-02T02:10:26.633Z,55.67
2018-04-02T02:11:26.640Z,55.57
2018-04-02T02:12:26.619Z,55.48
2018-04-02T02:13:26.615Z,55.57
2018-04-02T02:14:26.608Z,55.57
2018-04-02T02:15:26.598Z,55.48
2018-04-02T02:16:26.595Z,55.29
2018-04-02T02:17:26.585Z,55.48
2018-04-02T02:18:26.579Z,55.38
2018-04-02T02:19:26.571Z,55.48
2018-04-02T02:20:26.571Z,55.19
2018-04-02T02:21:26.558Z,55.09
2018-04-02T02:22:26.554Z,55.29
2018-04-02T02:23:26.557Z,55.67
2018-04-02T02:24:26.538Z,55.77
2018-04-02T02:25:26.536Z,55.57
2018-04-02T02:26:26.533Z,55.67
2018-04-02T02:27:26.529Z,55.70
2018-04-02T02:28:26.514Z,55.38
2018-04-02T02:29:26.509Z,56.09
2018-04-02T02:30:26.500Z,55.29
2018-04-02T02:31:26.496Z,55.87
2018-04-02T02:32:26.488Z,55.89
2018-04-02T02:33:26.482Z,56.15
2018-04-02T02:34:26.485Z,55.96
2018-04-02T02:35:26.473Z,56.15
2018-04-02T02:36:26.464Z,56.15
2018-04-02T02:37:26.456Z,56.15
2018-04-02T02:38:26.450Z,56.15
2018-04-02T02:39:26.443Z,56.15
2018-04-02T02:40:26.433Z,56.27
2018-04-02T02:41:26.429Z,56.15
2018-04-02T02:42:26.424Z,56.25
2018-04-02T02:43:26.418Z,56.15
2018-04-02T02:44:26.412Z,56.15
2018-04-02T02:45:26.405Z,56.09
2018-04-02T02:46:26.396Z,56.25
2018-04-02T02:47:26.391Z,56.25
2018-04-02T02:48:26.384Z,56.15
2018-04-02T02:49:26.392Z,56.05
2018-04-02T02:50:26.376Z,56.25
2018-04-02T02:51:26.370Z,56.35
2018-04-02T02:52:26.363Z,56.25
2018-04-02T02:53:26.351Z,56.15
2018-04-02T02:54:26.342Z,56.05
2018-04-02T02:55:26.341Z,56.25
2018-04-02T02:56:26.337Z,56.05
2018-04-02T02:57:26.327Z,56.15
2018-04-02T02:58:26.321Z,56.05
2018-04-02T02:59:26.319Z,56.05
2018-04-02T03:00:26.311Z,55.96
2018-04-02T03:01:26.303Z,56.05
2018-04-02T03:02:26.297Z,56.05
2018-04-02T03:03:26.287Z,56.05
2018-04-02T03:04:26.282Z,56.15
2018-04-02T03:05:26.278Z,55.77
2018-04-02T03:06:26.268Z,56.05
2018-04-02T03:07:26.255Z,56.05
2018-04-02T03:08:26.255Z,56.25
2018-04-02T03:09:26.249Z,56.15
2018-04-02T03:10:26.240Z,56.15
2018-04-02T03:11:26.237Z,56.15
2018-04-02T03:12:26.228Z,56.44
2018-04-02T03:13:26.222Z,56.05
2018-04-02T03:14:26.264Z,56.15
2018-04-02T03:15:26.210Z,56.05
2018-04-02T03:16:26.202Z,56.05
2018-04-02T03:17:26.198Z,56.05
2018-04-02T03:18:26.190Z,56.15
2018-04-02T03:19:26.183Z,56.05
2018-04-02T03:20:26.179Z,56.05
2018-04-02T03:21:26.169Z,56.05
2018-04-02T03:22:26.164Z,55.96
2018-04-02T03:23:26.155Z,55.96
2018-04-02T03:24:26.152Z,56.05
2018-04-02T03:25:26.150Z,55.96
2018-04-02T03:26:26.139Z,56.05
2018-04-02T03:27:26.132Z,56.05
2018-04-02T03:28:26.127Z,56.15
2018-04-02T03:29:26.122Z,56.15
2018-04-02T03:30:26.116Z,55.87
2018-04-02T03:31:26.107Z,56.15
2018-04-02T03:32:26.101Z,56.15
2018-04-02T03:33:26.093Z,56.25
2018-04-02T03:34:26.129Z,56.05
2018-04-02T03:35:26.079Z,56.05
2018-04-02T03:36:26.068Z,55.96
2018-04-02T03:37:26.064Z,56.05
2018-04-02T03:38:26.060Z,56.15
2018-04-02T03:39:26.056Z,56.05
2018-04-02T03:40:26.045Z,56.05
2018-04-02T03:41:26.041Z,56.35
2018-04-02T03:42:26.034Z,56.25
2018-04-02T03:43:26.033Z,56.25
2018-04-02T03:44:26.023Z,56.15
2018-04-02T03:45:26.010Z,56.25
2018-04-02T03:46:26.004Z,56.25
2018-04-02T03:47:25.998Z,56.25
2018-04-02T03:48:26.005Z,56.25
2018-04-02T03:49:25.994Z,56.25
2018-04-02T03:50:25.980Z,56.25
2018-04-02T03:51:25.973Z,56.05
2018-04-02T03:52:25.967Z,56.25
2018-04-02T03:53:25.964Z,56.05
2018-04-02T03:54:25.955Z,56.15
2018-04-02T03:55:25.957Z,55.96
2018-04-02T03:56:25.944Z,56.05
2018-04-02T03:57:25.946Z,56.35
2018-04-02T03:58:25.954Z,56.15
2018-04-02T03:59:25.926Z,56.15
2018-04-02T04:00:25.918Z,56.15
2018-04-02T04:01:25.908Z,56.05
2018-04-02T04:02:25.905Z,56.15
2018-04-02T04:03:25.904Z,55.96
2018-04-02T04:04:25.898Z,55.96
2018-04-02T04:05:25.885Z,55.67
2018-04-02T04:06:25.876Z,55.70
2018-04-02T04:07:25.871Z,55.51
2018-04-02T04:08:25.864Z,55.89
2018-04-02T04:09:25.858Z,55.60
2018-04-02T04:10:25.859Z,55.31
2018-04-02T04:11:25.853Z,55.41
2018-04-02T04:12:25.840Z,55.41
2018-04-02T04:13:25.832Z,55.51
2018-04-02T04:14:25.820Z,55.70
2018-04-02T04:15:25.822Z,55.60
2018-04-02T04:16:25.808Z,55.60
2018-04-02T04:17:25.807Z,55.70
2018-04-02T04:18:25.798Z,55.60
2018-04-02T04:19:25.796Z,55.89
2018-04-02T04:20:25.793Z,55.99
2018-04-02T04:21:25.780Z,55.51
2018-04-02T04:22:25.775Z,55.22
2018-04-02T04:23:25.769Z,55.12
2018-04-02T04:24:25.762Z,55.31
2018-04-02T04:25:25.761Z,55.31
2018-04-02T04:26:25.746Z,55.12
2018-04-02T04:27:25.757Z,55.22
2018-04-02T04:28:25.733Z,55.22
2018-04-02T04:29:25.730Z,55.31
2018-04-02T04:30:25.724Z,55.31
2018-04-02T04:31:25.720Z,55.12
2018-04-02T04:32:25.711Z,55.31
2018-04-02T04:33:25.703Z,55.22
2018-04-02T04:34:25.699Z,55.22
2018-04-02T04:35:25.693Z,55.31
2018-04-02T04:36:25.682Z,55.31
2018-04-02T04:37:25.677Z,55.79
2018-04-02T04:38:25.674Z,55.70
2018-04-02T04:39:25.671Z,55.51
2018-04-02T04:40:25.696Z,55.60
2018-04-02T04:41:25.656Z,55.60
2018-04-02T04:42:25.650Z,55.51
2018-04-02T04:43:25.640Z,55.51
2018-04-02T04:44:25.635Z,55.51
2018-04-02T04:45:25.628Z,55.70
2018-04-02T04:46:25.626Z,55.79
2018-04-02T04:47:25.615Z,55.60
2018-04-02T04:48:25.610Z,55.51
2018-04-02T04:49:25.603Z,55.79
2018-04-02T04:50:25.598Z,55.89
2018-04-02T04:51:25.591Z,55.70
2018-04-02T04:52:25.583Z,55.51
2018-04-02T04:53:25.575Z,55.51
2018-04-02T04:54:25.580Z,55.60
2018-04-02T04:55:25.564Z,55.70
2018-04-02T04:56:25.558Z,55.70
2018-04-02T04:57:25.552Z,55.60
2018-04-02T04:58:25.543Z,55.79
2018-04-02T04:59:25.593Z,55.60
2018-04-02T05:00:25.530Z,55.60
2018-04-02T05:01:25.537Z,55.60
2018-04-02T05:02:25.528Z,55.60
2018-04-02T05:03:25.514Z,55.60
2018-04-02T05:04:25.544Z,55.79
2018-04-02T05:05:25.506Z,55.79
2018-04-02T05:06:25.499Z,55.60
2018-04-02T05:07:25.494Z,55.79
2018-04-02T05:08:25.480Z,55.79
2018-04-02T05:09:25.511Z,55.60
2018-04-02T05:10:25.469Z,55.79
2018-04-02T05:11:25.465Z,55.60
2018-04-02T05:12:25.469Z,55.60
2018-04-02T05:13:25.454Z,55.70
2018-04-02T05:14:25.469Z,55.60
2018-04-02T05:15:25.436Z,55.70
2018-04-02T05:16:25.432Z,55.60
2018-04-02T05:17:25.436Z,55.60
2018-04-02T05:18:25.419Z,55.70
2018-04-02T05:19:25.413Z,55.60
2018-04-02T05:20:25.404Z,55.60
2018-04-02T05:21:25.401Z,55.60
2018-04-02T05:22:25.394Z,55.70
2018-04-02T05:23:25.393Z,55.60
2018-04-02T05:24:25.382Z,55.60
2018-04-02T05:25:25.383Z,55.79
2018-04-02T05:26:25.371Z,55.79
2018-04-02T05:27:25.368Z,55.79
2018-04-02T05:28:25.356Z,55.60
2018-04-02T05:29:25.349Z,55.51
2018-04-02T05:30:25.342Z,55.89
2018-04-02T05:31:25.334Z,55.70
2018-04-02T05:32:25.333Z,55.22
2018-04-02T05:33:25.323Z,55.41
2018-04-02T05:34:25.320Z,55.60
2018-04-02T05:35:25.311Z,55.31
2018-04-02T05:36:25.301Z,55.31
2018-04-02T05:37:25.301Z,55.22
2018-04-02T05:38:25.292Z,55.02
2018-04-02T05:39:25.287Z,55.31
2018-04-02T05:40:25.290Z,55.12
2018-04-02T05:41:25.274Z,55.22
2018-04-02T05:42:25.265Z,55.22
2018-04-02T05:43:25.260Z,55.31
2018-04-02T05:44:25.254Z,55.22
2018-04-02T05:45:25.244Z,55.22
2018-04-02T05:46:25.239Z,55.22
2018-04-02T05:47:25.243Z,55.22
2018-04-02T05:48:25.227Z,55.22
2018-04-02T05:49:25.261Z,55.22
2018-04-02T05:50:25.214Z,55.31
2018-04-02T05:51:25.210Z,55.41
2018-04-02T05:52:25.244Z,55.22
2018-04-02T05:53:25.197Z,55.31
2018-04-02T05:54:25.190Z,55.22
2018-04-02T05:55:25.208Z,55.22
2018-04-02T05:56:25.177Z,55.31
2018-04-02T05:57:25.172Z,55.31
2018-04-02T05:58:25.166Z,55.22
2018-04-02T05:59:25.161Z,55.22
2018-04-02T06:00:25.154Z,55.31
2018-04-02T06:01:25.148Z,55.22
2018-04-02T06:02:25.140Z,55.31
2018-04-02T06:03:25.147Z,55.31
2018-04-02T06:04:25.127Z,55.51
2018-04-02T06:05:25.121Z,55.51
2018-04-02T06:06:25.115Z,55.12
2018-04-02T06:07:25.120Z,55.02
2018-04-02T06:08:25.102Z,55.31
2018-04-02T06:09:25.098Z,55.31
2018-04-02T06:10:25.092Z,55.22
2018-04-02T06:11:25.082Z,55.12
2018-04-02T06:12:25.079Z,55.22
2018-04-02T06:13:25.071Z,55.12
2018-04-02T06:14:25.065Z,55.22
2018-04-02T06:15:25.060Z,55.12
2018-04-02T06:16:25.054Z,55.12
2018-04-02T06:17:25.046Z,55.31
2018-04-02T06:18:25.041Z,54.83
2018-04-02T06:19:25.034Z,55.02
2018-04-02T06:20:25.037Z,55.02
2018-04-02T06:21:25.021Z,54.64
2018-04-02T06:22:25.068Z,54.64
2018-04-02T06:23:25.011Z,54.74
2018-04-02T06:24:25.010Z,54.54
2018-04-02T06:25:25.002Z,54.83
2018-04-02T06:26:25.002Z,54.83
2018-04-02T06:27:24.990Z,54.54
2018-04-02T06:28:24.984Z,54.57
2018-04-02T06:29:24.971Z,54.93
2018-04-02T06:30:24.970Z,54.66
2018-04-02T06:31:24.958Z,54.57
2018-04-02T06:32:24.949Z,54.57
2018-04-02T06:33:24.946Z,54.57
2018-04-02T06:34:24.937Z,54.86
2018-04-02T06:35:24.932Z,54.86
2018-04-02T06:36:24.932Z,54.76
2018-04-02T06:37:24.919Z,54.66
2018-04-02T06:38:24.913Z,54.86
2018-04-02T06:39:24.908Z,54.86
2018-04-02T06:40:24.903Z,54.76
2018-04-02T06:41:24.902Z,54.76
2018-04-02T06:42:24.889Z,54.86
2018-04-02T06:43:24.892Z,54.86
2018-04-02T06:44:24.878Z,54.96
2018-04-02T06:45:24.870Z,54.76
2018-04-02T06:46:24.861Z,54.66
2018-04-02T06:47:24.858Z,54.96
2018-04-02T06:48:24.852Z,54.96
2018-04-02T06:49:24.852Z,54.96
2018-04-02T06:50:24.840Z,54.86
2018-04-02T06:51:24.834Z,54.50
2018-04-02T06:52:24.832Z,54.86
2018-04-02T06:53:24.822Z,54.18
2018-04-02T06:54:24.816Z,54.18
2018-04-02T06:55:24.814Z,54.47
2018-04-02T06:56:24.803Z,54.47
2018-04-02T06:57:24.795Z,54.02
2018-04-02T06:58:24.792Z,54.21
2018-04-02T06:59:24.789Z,54.21
2018-04-02T07:00:24.777Z,54.21
2018-04-02T07:01:24.772Z,54.21
2018-04-02T07:02:24.764Z,54.02
2018-04-02T07:03:24.759Z,54.02
2018-04-02T07:04:24.755Z,54.02
2018-04-02T07:05:24.746Z,54.02
2018-04-02T07:06:24.740Z,54.11
2018-04-02T07:07:24.731Z,54.02
2018-04-02T07:08:24.727Z,54.21
2018-04-02T07:09:24.721Z,53.83
2018-04-02T07:10:24.718Z,54.21
2018-04-02T07:11:24.717Z,54.21
2018-04-02T07:12:24.711Z,54.21
2018-04-02T07:13:24.699Z,54.11
2018-04-02T07:14:24.699Z,54.21
2018-04-02T07:15:24.692Z,54.21
2018-04-02T07:16:24.687Z,54.18
2018-04-02T07:17:24.720Z,54.11
2018-04-02T07:18:24.685Z,54.21
2018-04-02T07:19:24.664Z,54.21
2018-04-02T07:20:24.660Z,54.21
2018-04-02T07:21:24.648Z,54.11
2018-04-02T07:22:24.646Z,54.11
2018-04-02T07:23:24.637Z,54.09
2018-04-02T07:24:24.633Z,54.21
2018-04-02T07:25:24.624Z,54.09
2018-04-02T07:26:24.619Z,54.18
2018-04-02T07:27:24.616Z,54.21
2018-04-02T07:28:24.616Z,54.02
2018-04-02T07:29:24.602Z,54.09
2018-04-02T07:30:24.602Z,54.02
2018-04-02T07:31:24.590Z,54.18
2018-04-02T07:32:24.587Z,53.99
2018-04-02T07:33:24.575Z,54.09
2018-04-02T07:34:24.582Z,54.18
2018-04-02T07:35:24.561Z,54.18
2018-04-02T07:36:24.561Z,54.18
2018-04-02T07:37:24.563Z,53.99
2018-04-02T07:38:24.552Z,54.18
2018-04-02T07:39:24.540Z,53.99
2018-04-02T07:40:24.530Z,54.09
2018-04-02T07:41:24.531Z,53.99
2018-04-02T07:42:24.529Z,54.09
2018-04-02T07:43:24.515Z,53.99
2018-04-02T07:44:24.532Z,54.09
2018-04-02T07:45:24.504Z,54.09
2018-04-02T07:46:24.497Z,54.28
2018-04-02T07:47:24.489Z,53.89
2018-04-02T07:48:24.489Z,54.18
2018-04-02T07:49:24.476Z,54.09
2018-04-02T07:50:24.471Z,54.09
2018-04-02T07:51:24.467Z,53.99
2018-04-02T07:52:24.465Z,54.28
2018-04-02T07:53:24.455Z,54.09
2018-04-02T07:54:24.448Z,54.09
2018-04-02T07:55:24.441Z,54.09
2018-04-02T07:56:24.438Z,54.18
2018-04-02T07:57:24.430Z,54.28
2018-04-02T07:58:24.423Z,54.18
2018-04-02T07:59:24.418Z,54.28
2018-04-02T08:00:24.426Z,54.38
2018-04-02T08:01:24.409Z,54.47
2018-04-02T08:02:24.400Z,54.66
2018-04-02T08:03:24.396Z,54.57
2018-04-02T08:04:24.392Z,54.86
2018-04-02T08:05:24.383Z,54.79
2018-04-02T08:06:24.374Z,54.69
2018-04-02T08:07:24.373Z,54.66
2018-04-02T08:08:24.369Z,55.08
2018-04-02T08:09:24.355Z,54.79
2018-04-02T08:10:24.350Z,54.76
2018-04-02T08:11:24.344Z,54.96
2018-04-02T08:12:24.343Z,54.50
2018-04-02T08:13:24.335Z,54.38
2018-04-02T08:14:24.377Z,54.50
2018-04-02T08:15:24.345Z,54.40
2018-04-02T08:16:24.335Z,54.40
2018-04-02T08:17:24.318Z,54.31
2018-04-02T08:18:24.306Z,54.31
2018-04-02T08:19:24.300Z,54.21
2018-04-02T08:20:24.317Z,54.50
2018-04-02T08:21:25.224Z,54.60
2018-04-02T08:22:25.176Z,54.60
2018-04-02T08:23:24.273Z,54.50
2018-04-02T08:24:24.265Z,54.50
2018-04-02T08:25:24.280Z,54.50
2018-04-02T08:26:24.255Z,54.50
2018-04-02T08:27:24.246Z,54.21
2018-04-02T08:28:24.240Z,54.50
2018-04-02T08:29:24.242Z,54.21
2018-04-02T08:30:24.227Z,54.40
2018-04-02T08:31:24.225Z,54.50
2018-04-02T08:32:24.228Z,54.40
2018-04-02T08:33:24.216Z,54.02
2018-04-02T08:34:24.205Z,54.31
2018-04-02T08:35:24.201Z,54.02
2018-04-02T08:36:24.189Z,54.21
2018-04-02T08:37:24.186Z,54.21
2018-04-02T08:38:24.175Z,54.21
2018-04-02T08:39:24.176Z,54.31
2018-04-02T08:40:24.179Z,54.21
2018-04-02T08:41:24.163Z,53.83
2018-04-02T08:42:24.156Z,54.02
2018-04-02T08:43:24.149Z,53.75
2018-04-02T08:44:24.165Z,54.14
2018-04-02T08:45:24.142Z,53.63
2018-04-02T08:46:24.132Z,54.02
2018-04-02T08:47:24.128Z,54.05
2018-04-02T08:48:24.118Z,54.05
2018-04-02T08:49:24.122Z,54.24
2018-04-02T08:50:24.108Z,53.56
2018-04-02T08:51:24.107Z,53.85
2018-04-02T08:52:24.095Z,53.66
2018-04-02T08:53:24.087Z,53.47
2018-04-02T08:54:24.088Z,53.56
2018-04-02T08:55:24.080Z,53.56
2018-04-02T08:56:24.065Z,53.56
2018-04-02T08:57:24.068Z,53.85
2018-04-02T08:58:24.059Z,53.37
2018-04-02T08:59:24.055Z,52.89
2018-04-02T09:00:24.048Z,52.89
2018-04-02T09:01:24.041Z,53.08
2018-04-02T09:02:24.041Z,52.79
2018-04-02T09:03:24.033Z,52.72
2018-04-02T09:04:24.027Z,52.43
2018-04-02T09:05:24.024Z,52.33
2018-04-02T09:06:24.004Z,52.23
2018-04-02T09:07:24.011Z,52.26
2018-04-02T09:08:24.000Z,51.78
2018-04-02T09:09:23.998Z,51.59
2018-04-02T09:10:23.989Z,51.87
2018-04-02T09:11:23.986Z,51.49
2018-04-02T09:12:23.983Z,51.42
2018-04-02T09:13:23.974Z,51.51
2018-04-02T09:14:23.967Z,50.91
2018-04-02T09:15:23.962Z,50.84
2018-04-02T09:16:23.953Z,50.55
2018-04-02T09:17:23.950Z,50.84
2018-04-02T09:18:23.944Z,50.84
2018-04-02T09:19:23.938Z,50.45
2018-04-02T09:20:23.938Z,50.55
2018-04-02T09:21:23.927Z,49.99
2018-04-02T09:22:23.922Z,49.80
2018-04-02T09:23:23.915Z,50.09
2018-04-02T09:24:23.905Z,49.70
2018-04-02T09:25:23.904Z,49.99
2018-04-02T09:26:23.897Z,50.02
2018-04-02T09:27:23.890Z,49.73
2018-04-02T09:28:23.888Z,49.44
2018-04-02T09:29:23.898Z,49.44
2018-04-02T09:30:23.870Z,49.44
2018-04-02T09:31:23.867Z,49.05
2018-04-02T09:32:23.862Z,49.37
2018-04-02T09:33:23.858Z,49.17
2018-04-02T09:34:23.849Z,48.88
2018-04-02T09:35:23.844Z,48.88
2018-04-02T09:36:23.844Z,48.88
2018-04-02T09:37:23.850Z,48.59
2018-04-02T09:38:23.838Z,48.69
2018-04-02T09:39:23.823Z,48.79
2018-04-02T09:40:23.815Z,48.39
2018-04-02T09:41:23.808Z,48.59
2018-04-02T09:42:23.804Z,48.30
2018-04-02T09:43:23.796Z,48.59
2018-04-02T09:44:23.802Z,48.69
2018-04-02T09:45:23.785Z,48.20
2018-04-02T09:46:23.779Z,48.39
2018-04-02T09:47:23.769Z,48.59
2018-04-02T09:48:23.764Z,48.20
2018-04-02T09:49:23.762Z,48.20
2018-04-02T09:50:23.754Z,48.01
2018-04-02T09:51:23.760Z,47.84
2018-04-02T09:52:23.752Z,47.72
2018-04-02T09:53:23.737Z,47.72
2018-04-02T09:54:23.735Z,47.74
2018-04-02T09:55:23.727Z,47.94
2018-04-02T09:56:23.723Z,47.84
2018-04-02T09:57:23.710Z,47.94
2018-04-02T09:58:23.709Z,48.13
2018-04-02T09:59:23.755Z,47.74
2018-04-02T10:00:23.703Z,47.33
2018-04-02T10:01:23.696Z,47.64
2018-04-02T10:02:23.687Z,47.62
2018-04-02T10:03:24.231Z,47.55
2018-04-02T10:04:23.670Z,47.45
2018-04-02T10:05:23.673Z,47.64
2018-04-02T10:06:23.672Z,47.36
2018-04-02T10:07:23.657Z,47.04
2018-04-02T10:08:23.650Z,47.06
2018-04-02T10:09:23.652Z,47.16
2018-04-02T10:10:23.653Z,47.24
2018-04-02T10:11:23.634Z,47.06
2018-04-02T10:12:23.630Z,47.16
2018-04-02T10:13:23.623Z,47.04
2018-04-02T10:14:23.624Z,46.87
2018-04-02T10:15:23.632Z,46.84
2018-04-02T10:16:23.604Z,47.24
2018-04-02T10:17:23.600Z,46.97
2018-04-02T10:18:23.605Z,46.75
2018-04-02T10:19:23.590Z,46.56
2018-04-02T10:20:23.583Z,46.56
2018-04-02T10:21:23.582Z,46.94
2018-04-02T10:22:23.568Z,46.56
2018-04-02T10:23:23.570Z,46.75
2018-04-02T10:24:23.561Z,46.84
2018-04-02T10:25:23.554Z,46.66
2018-04-02T10:26:23.552Z,46.56
2018-04-02T10:27:23.546Z,46.66
2018-04-02T10:28:23.537Z,46.77
2018-04-02T10:29:23.532Z,46.56
2018-04-02T10:30:23.526Z,46.94
2018-04-02T10:31:23.515Z,46.94
2018-04-02T10:32:23.522Z,46.94
2018-04-02T10:33:23.507Z,47.04
2018-04-02T10:34:23.505Z,46.66
2018-04-02T10:35:23.495Z,46.56
2018-04-02T10:36:23.490Z,46.56
2018-04-02T10:37:23.489Z,46.66
2018-04-02T10:38:23.477Z,46.66
2018-04-02T10:39:23.470Z,46.84
2018-04-02T10:40:23.469Z,46.46
2018-04-02T10:41:23.461Z,46.56
2018-04-02T10:42:23.475Z,46.36
2018-04-02T10:43:23.458Z,46.36
2018-04-02T10:44:24.274Z,46.36
2018-04-02T10:45:23.439Z,46.66
2018-04-02T10:46:23.436Z,46.36
2018-04-02T10:47:23.421Z,46.56
2018-04-02T10:48:23.419Z,46.67
2018-04-02T10:49:23.413Z,46.26
2018-04-02T10:50:23.410Z,46.17
2018-04-02T10:51:23.424Z,46.17
2018-04-02T10:52:23.400Z,46.26
2018-04-02T10:53:23.390Z,46.17
2018-04-02T10:54:23.382Z,46.08
2018-04-02T10:55:23.380Z,46.17
2018-04-02T10:56:23.375Z,46.36
2018-04-02T10:57:23.365Z,45.88
2018-04-02T10:58:23.360Z,45.88
2018-04-02T10:59:23.361Z,45.88
2018-04-02T11:00:23.353Z,45.88
2018-04-02T11:01:23.350Z,46.08
2018-04-02T11:02:24.274Z,46.26
2018-04-02T11:03:23.333Z,46.08
2018-04-02T11:04:23.371Z,46.26
2018-04-02T11:05:23.320Z,46.08
2018-04-02T11:06:23.315Z,46.08
2018-04-02T11:07:23.313Z,46.08
2018-04-02T11:08:23.304Z,46.19
2018-04-02T11:09:23.295Z,46.08
2018-04-02T11:10:23.292Z,46.48
2018-04-02T11:11:23.288Z,46.29
2018-04-02T11:12:23.280Z,45.42
2018-04-02T11:13:23.274Z,45.90
2018-04-02T11:14:23.269Z,45.90
2018-04-02T11:15:23.264Z,45.90
2018-04-02T11:16:23.270Z,46.00
2018-04-02T11:17:23.261Z,46.00
2018-04-02T11:18:23.247Z,45.90
2018-04-02T11:19:23.239Z,45.81
2018-04-02T11:20:23.238Z,45.71
2018-04-02T11:21:23.226Z,45.42
2018-04-02T11:22:23.222Z,46.29
2018-04-02T11:23:23.220Z,46.39
2018-04-02T11:24:23.229Z,45.61
2018-04-02T11:25:23.206Z,45.61
2018-04-02T11:26:23.200Z,45.71
2018-04-02T11:27:23.192Z,46.00
2018-04-02T11:28:23.188Z,46.09
2018-04-02T11:29:23.181Z,46.19
2018-04-02T11:30:23.175Z,46.19
2018-04-02T11:31:23.171Z,46.29
2018-04-02T11:32:23.174Z,45.90
2018-04-02T11:33:23.171Z,45.90
2018-04-02T11:34:23.150Z,46.19
2018-04-02T11:35:23.146Z,46.67
2018-04-02T11:36:23.144Z,46.87
2018-04-02T11:37:23.140Z,46.67
2018-04-02T11:38:23.128Z,46.48
2018-04-02T11:39:23.129Z,46.58
2018-04-02T11:40:23.132Z,46.97
2018-04-02T11:41:23.139Z,46.67
2018-04-02T11:42:23.111Z,47.16
2018-04-02T11:43:23.104Z,47.26
2018-04-02T11:44:23.107Z,46.29
2018-04-02T11:45:23.090Z,44.23
2018-04-02T11:46:23.086Z,44.60
2018-04-02T11:47:23.075Z,44.77
2018-04-02T11:48:23.083Z,45.14
2018-04-02T11:49:23.075Z,45.04
2018-04-02T11:50:23.062Z,44.94
2018-04-02T11:51:23.056Z,44.87
2018-04-02T11:52:23.051Z,44.75
2018-04-02T11:53:23.047Z,43.90
2018-04-02T11:54:23.037Z,43.80
2018-04-02T11:55:23.032Z,43.32
2018-04-02T11:56:23.023Z,43.32
2018-04-02T11:57:23.023Z,42.93
2018-04-02T11:58:23.014Z,42.74
2018-04-02T11:59:23.005Z,42.57
2018-04-02T12:00:23.000Z,42.37
2018-04-02T12:01:22.997Z,42.37
2018-04-02T12:02:22.989Z,42.08
2018-04-02T12:03:22.979Z,42.18
2018-04-02T12:04:22.981Z,42.37
2018-04-02T12:05:22.977Z,41.99
2018-04-02T12:06:22.965Z,41.89
2018-04-02T12:07:22.957Z,41.99
2018-04-02T12:08:22.958Z,41.99
2018-04-02T12:09:22.980Z,41.89
2018-04-02T12:10:22.939Z,41.99
2018-04-02T12:11:22.932Z,41.79
2018-04-02T12:12:22.928Z,41.82
2018-04-02T12:13:22.920Z,42.28
2018-04-02T12:14:22.913Z,42.30
2018-04-02T12:15:22.915Z,42.18
2018-04-02T12:16:22.903Z,42.28
2018-04-02T12:17:22.898Z,42.08
2018-04-02T12:18:22.889Z,42.28
2018-04-02T12:19:22.887Z,42.08
2018-04-02T12:20:22.882Z,41.99
2018-04-02T12:21:22.871Z,42.57
2018-04-02T12:22:22.867Z,42.47
2018-04-02T12:23:22.861Z,42.18
2018-04-02T12:24:22.850Z,42.37
2018-04-02T12:25:22.850Z,42.18
2018-04-02T12:26:22.839Z,42.37
2018-04-02T12:27:22.834Z,42.47
2018-04-02T12:28:22.830Z,42.47
2018-04-02T12:29:22.825Z,42.66
2018-04-02T12:30:22.822Z,42.96
2018-04-02T12:31:22.812Z,42.76
2018-04-02T12:32:22.804Z,42.76
2018-04-02T12:33:22.800Z,43.05
2018-04-02T12:34:22.794Z,43.05
2018-04-02T12:35:22.786Z,43.15
2018-04-02T12:36:22.797Z,43.05
2018-04-02T12:37:22.773Z,42.96
2018-04-02T12:38:22.776Z,42.96
2018-04-02T12:39:22.765Z,43.15
2018-04-02T12:40:22.750Z,43.34
2018-04-02T12:41:22.746Z,43.34
2018-04-02T12:42:22.742Z,43.34
2018-04-02T12:43:22.739Z,43.15
2018-04-02T12:44:22.779Z,43.24
2018-04-02T12:45:22.718Z,43.34
2018-04-02T12:46:22.714Z,43.34
2018-04-02T12:47:22.742Z,43.32
2018-04-02T12:48:22.749Z,43.34
2018-04-02T12:49:22.698Z,43.34
2018-04-02T12:50:22.689Z,44.12
2018-04-02T12:51:22.695Z,44.02
2018-04-02T12:52:22.671Z,43.80